Prairieburg, Iowa
Current Conditions -  °F | °C
As of 3:15 PM on Saturday 25 Oct 2014 (Local Time) from KMXO Reporting Station
Clear Clear  
Wind Chill: 70°   Ceiling: Unl
Heat Index: 70°   Visibility: 10mi
Dew Point: 32°   Wind: 16mph
Humidity: 25%   Direction: 310°NW
Pressure: 30.02"   Gusts: NA
Location:  42.24°N, 91.42°W
Report Text: KMXO 252015Z AUTO 31014KT 10SM CLR 21/00 A3002 RMK AO2
Loading
Personal Weather Stations






























Interactive Weather Map
Tropical Storm Tracking
New forecast layout! Learn more

10-Day Weather Forecast

Advertisements
Track Severe Weather on mobile